sensor_id;sensor_type;location;lat;lon;timestamp;pressure;altitude;pressure_sealevel;temperature;humidity
68807;BME280;55800;54.272;18.558;2023-07-16T00:01:03;100456.56;;;19.74;53.52
68807;BME280;55800;54.272;18.558;2023-07-16T00:03:54;100459.41;;;19.72;49.13
68807;BME280;55800;54.272;18.558;2023-07-16T00:06:23;100449.38;;;19.73;48.33
68807;BME280;55800;54.272;18.558;2023-07-16T00:08:53;100445.06;;;19.70;48.11
68807;BME280;55800;54.272;18.558;2023-07-16T00:11:21;100440.88;;;19.66;47.95
68807;BME280;55800;54.272;18.558;2023-07-16T00:13:51;100453.84;;;19.63;48.07
68807;BME280;55800;54.272;18.558;2023-07-16T00:16:20;100452.38;;;19.59;48.15
68807;BME280;55800;54.272;18.558;2023-07-16T00:18:51;100445.50;;;19.55;48.15
68807;BME280;55800;54.272;18.558;2023-07-16T00:21:22;100453.00;;;19.51;47.98
68807;BME280;55800;54.272;18.558;2023-07-16T00:23:51;100444.13;;;19.49;49.18
68807;BME280;55800;54.272;18.558;2023-07-16T00:26:20;100445.34;;;19.45;48.14
68807;BME280;55800;54.272;18.558;2023-07-16T00:28:49;100445.63;;;19.42;48.06
68807;BME280;55800;54.272;18.558;2023-07-16T00:31:18;100431.56;;;19.37;47.63
68807;BME280;55800;54.272;18.558;2023-07-16T00:33:47;100438.19;;;19.33;48.30
68807;BME280;55800;54.272;18.558;2023-07-16T00:36:16;100430.28;;;19.30;47.90
68807;BME280;55800;54.272;18.558;2023-07-16T00:38:47;100430.56;;;19.27;47.76
68807;BME280;55800;54.272;18.558;2023-07-16T00:41:17;100430.78;;;19.24;48.03
68807;BME280;55800;54.272;18.558;2023-07-16T00:43:47;100419.22;;;19.22;47.78
68807;BME280;55800;54.272;18.558;2023-07-16T00:46:16;100411.34;;;19.19;48.07
68807;BME280;55800;54.272;18.558;2023-07-16T00:48:46;100426.13;;;19.15;48.48
68807;BME280;55800;54.272;18.558;2023-07-16T00:51:15;100417.28;;;19.13;49.39
68807;BME280;55800;54.272;18.558;2023-07-16T00:53:45;100418.97;;;19.14;50.54
68807;BME280;55800;54.272;18.558;2023-07-16T00:56:17;100416.13;;;19.15;50.46
68807;BME280;55800;54.272;18.558;2023-07-16T00:58:46;100410.09;;;19.12;49.41
68807;BME280;55800;54.272;18.558;2023-07-16T01:01:15;100411.22;;;19.09;49.72
68807;BME280;55800;54.272;18.558;2023-07-16T01:03:45;100400.50;;;19.08;51.47
68807;BME280;55800;54.272;18.558;2023-07-16T01:06:15;100396.91;;;19.07;49.29
68807;BME280;55800;54.272;18.558;2023-07-16T01:08:46;100394.34;;;19.06;50.39
68807;BME280;55800;54.272;18.558;2023-07-16T01:11:17;100403.22;;;19.08;50.10
68807;BME280;55800;54.272;18.558;2023-07-16T01:13:47;100395.22;;;19.06;49.56
68807;BME280;55800;54.272;18.558;2023-07-16T01:16:19;100390.91;;;19.04;49.45
68807;BME280;55800;54.272;18.558;2023-07-16T01:18:50;100386.22;;;19.06;49.80
68807;BME280;55800;54.272;18.558;2023-07-16T01:21:20;100376.34;;;19.05;49.00
68807;BME280;55800;54.272;18.558;2023-07-16T01:23:56;100372.91;;;19.03;49.34
68807;BME280;55800;54.272;18.558;2023-07-16T01:26:50;100370.19;;;19.03;49.16
68807;BME280;55800;54.272;18.558;2023-07-16T01:29:32;100375.50;;;19.04;50.67
68807;BME280;55800;54.272;18.558;2023-07-16T01:32:04;100379.19;;;19.03;51.82
68807;BME280;55800;54.272;18.558;2023-07-16T01:34:36;100389.16;;;19.03;55.97
68807;BME280;55800;54.272;18.558;2023-07-16T01:37:06;100383.13;;;18.99;54.89
68807;BME280;55800;54.272;18.558;2023-07-16T01:39:35;100382.03;;;19.02;56.31
68807;BME280;55800;54.272;18.558;2023-07-16T01:42:04;100385.09;;;18.97;52.76
68807;BME280;55800;54.272;18.558;2023-07-16T01:44:35;100376.38;;;18.94;50.72
68807;BME280;55800;54.272;18.558;2023-07-16T01:47:05;100375.75;;;18.90;50.47
68807;BME280;55800;54.272;18.558;2023-07-16T01:49:37;100381.41;;;18.87;50.10
68807;BME280;55800;54.272;18.558;2023-07-16T01:52:06;100376.09;;;18.86;49.78
68807;BME280;55800;54.272;18.558;2023-07-16T01:54:37;100372.66;;;18.84;49.75
68807;BME280;55800;54.272;18.558;2023-07-16T01:57:07;100364.66;;;18.82;49.68
68807;BME280;55800;54.272;18.558;2023-07-16T01:59:38;100361.06;;;18.82;49.53
68807;BME280;55800;54.272;18.558;2023-07-16T02:02:08;100357.50;;;18.81;49.41
68807;BME280;55800;54.272;18.558;2023-07-16T02:04:38;100368.22;;;18.83;49.77
68807;BME280;55800;54.272;18.558;2023-07-16T02:07:07;100370.69;;;18.86;50.45
68807;BME280;55800;54.272;18.558;2023-07-16T02:09:38;100377.56;;;18.90;50.11
68807;BME280;55800;54.272;18.558;2023-07-16T02:12:08;100375.00;;;18.88;49.55
68807;BME280;55800;54.272;18.558;2023-07-16T02:14:39;100369.59;;;18.88;49.33
68807;BME280;55800;54.272;18.558;2023-07-16T02:17:08;100350.63;;;18.88;49.49
68807;BME280;55800;54.272;18.558;2023-07-16T02:19:37;100355.81;;;18.91;49.42
68807;BME280;55800;54.272;18.558;2023-07-16T02:22:07;100359.97;;;18.95;49.54
68807;BME280;55800;54.272;18.558;2023-07-16T02:24:37;100373.16;;;19.00;49.37
68807;BME280;55800;54.272;18.558;2023-07-16T02:27:05;100360.34;;;19.02;49.22
68807;BME280;55800;54.272;18.558;2023-07-16T02:29:35;100364.53;;;19.06;49.52
68807;BME280;55800;54.272;18.558;2023-07-16T03:51:03;100336.09;;;20.29;50.75
68807;BME280;55800;54.272;18.558;2023-07-16T03:53:32;100327.41;;;20.35;50.27
68807;BME280;55800;54.272;18.558;2023-07-16T03:56:02;100320.28;;;20.34;50.14
68807;BME280;55800;54.272;18.558;2023-07-16T03:58:31;100321.00;;;20.36;50.11
68807;BME280;55800;54.272;18.558;2023-07-16T04:01:01;100313.78;;;20.46;50.12
68807;BME280;55800;54.272;18.558;2023-07-16T04:03:33;100314.69;;;20.56;49.95
68807;BME280;55800;54.272;18.558;2023-07-16T04:06:08;100307.44;;;20.66;49.80
68807;BME280;55800;54.272;18.558;2023-07-16T04:08:38;100309.34;;;20.75;49.84
68807;BME280;55800;54.272;18.558;2023-07-16T04:11:07;100311.41;;;20.82;50.87
68807;BME280;55800;54.272;18.558;2023-07-16T04:13:36;100319.56;;;20.92;50.16
68807;BME280;55800;54.272;18.558;2023-07-16T04:16:05;100305.78;;;21.05;50.41
68807;BME280;55800;54.272;18.558;2023-07-16T04:18:34;100306.66;;;21.15;50.35
68807;BME280;55800;54.272;18.558;2023-07-16T04:21:03;100297.53;;;21.25;50.49
68807;BME280;55800;54.272;18.558;2023-07-16T04:23:34;100306.28;;;21.38;50.48
68807;BME280;55800;54.272;18.558;2023-07-16T04:26:03;100302.44;;;21.50;50.35
68807;BME280;55800;54.272;18.558;2023-07-16T04:28:32;100286.69;;;21.63;50.43
68807;BME280;55800;54.272;18.558;2023-07-16T04:31:01;100289.84;;;21.78;50.57
68807;BME280;55800;54.272;18.558;2023-07-16T04:33:30;100294.03;;;21.92;50.54
68807;BME280;55800;54.272;18.558;2023-07-16T04:35:59;100301.06;;;22.04;50.82
68807;BME280;55800;54.272;18.558;2023-07-16T04:38:28;100292.72;;;22.15;50.57
68807;BME280;55800;54.272;18.558;2023-07-16T04:40:59;100302.75;;;22.24;50.27
68807;BME280;55800;54.272;18.558;2023-07-16T04:43:28;100295.56;;;22.32;50.28
68807;BME280;55800;54.272;18.558;2023-07-16T04:45:57;100307.47;;;22.41;50.11
68807;BME280;55800;54.272;18.558;2023-07-16T04:48:26;100298.69;;;22.47;50.02
68807;BME280;55800;54.272;18.558;2023-07-16T04:50:55;100301.84;;;22.52;50.13
68807;BME280;55800;54.272;18.558;2023-07-16T04:53:24;100301.25;;;22.58;50.01
68807;BME280;55800;54.272;18.558;2023-07-16T04:55:54;100304.41;;;22.63;50.59
68807;BME280;55800;54.272;18.558;2023-07-16T04:58:26;100300.38;;;22.67;50.32
68807;BME280;55800;54.272;18.558;2023-07-16T05:00:55;100297.06;;;22.73;50.04
68807;BME280;55800;54.272;18.558;2023-07-16T05:03:24;100292.00;;;22.78;49.93
68807;BME280;55800;54.272;18.558;2023-07-16T05:05:56;100285.25;;;22.82;50.18
68807;BME280;55800;54.272;18.558;2023-07-16T05:08:25;100289.09;;;22.89;49.98
68807;BME280;55800;54.272;18.558;2023-07-16T05:10:54;100297.69;;;22.94;50.14
68807;BME280;55800;54.272;18.558;2023-07-16T05:13:23;100303.69;;;22.98;50.12
68807;BME280;55800;54.272;18.558;2023-07-16T05:15:54;100305.97;;;23.02;50.34
68807;BME280;55800;54.272;18.558;2023-07-16T05:18:23;100320.31;;;23.04;50.28
68807;BME280;55800;54.272;18.558;2023-07-16T05:20:52;100312.84;;;23.06;49.91
68807;BME280;55800;54.272;18.558;2023-07-16T05:23:21;100317.28;;;23.07;51.25
68807;BME280;55800;54.272;18.558;2023-07-16T05:25:51;100330.63;;;23.10;50.78
68807;BME280;55800;54.272;18.558;2023-07-16T05:28:20;100322.16;;;23.13;50.22
68807;BME280;55800;54.272;18.558;2023-07-16T05:30:58;100340.75;;;23.18;50.75
68807;BME280;55800;54.272;18.558;2023-07-16T05:36:26;100332.84;;;23.24;50.53
68807;BME280;55800;54.272;18.558;2023-07-16T05:38:55;100338.72;;;23.29;50.66
68807;BME280;55800;54.272;18.558;2023-07-16T05:41:24;100333.81;;;23.33;50.07
68807;BME280;55800;54.272;18.558;2023-07-16T05:43:54;100313.56;;;23.36;50.01
68807;BME280;55800;54.272;18.558;2023-07-16T05:46:25;100316.00;;;23.39;50.15
68807;BME280;55800;54.272;18.558;2023-07-16T05:48:54;100353.59;;;23.45;53.68
68807;BME280;55800;54.272;18.558;2023-07-16T05:51:24;100381.84;;;23.53;53.94
68807;BME280;55800;54.272;18.558;2023-07-16T05:53:53;100370.22;;;23.51;51.76
68807;BME280;55800;54.272;18.558;2023-07-16T05:56:22;100380.09;;;23.52;51.91
68807;BME280;55800;54.272;18.558;2023-07-16T05:58:51;100376.22;;;23.55;51.06
68807;BME280;55800;54.272;18.558;2023-07-16T06:01:20;100366.72;;;23.59;50.70
68807;BME280;55800;54.272;18.558;2023-07-16T06:03:51;100374.44;;;23.63;50.46
68807;BME280;55800;54.272;18.558;2023-07-16T06:06:20;100373.00;;;23.69;50.86
68807;BME280;55800;54.272;18.558;2023-07-16T06:08:49;100378.53;;;23.77;50.43
68807;BME280;55800;54.272;18.558;2023-07-16T06:11:18;100375.88;;;23.85;50.82
68807;BME280;55800;54.272;18.558;2023-07-16T06:13:48;100374.63;;;23.97;51.65
68807;BME280;55800;54.272;18.558;2023-07-16T06:16:17;100367.97;;;24.09;51.45
68807;BME280;55800;54.272;18.558;2023-07-16T06:18:46;100364.50;;;24.25;51.66
68807;BME280;55800;54.272;18.558;2023-07-16T06:21:17;100356.06;;;24.36;52.76
68807;BME280;55800;54.272;18.558;2023-07-16T06:23:46;100345.44;;;24.50;52.48
68807;BME280;55800;54.272;18.558;2023-07-16T06:26:15;100348.59;;;24.63;53.17
68807;BME280;55800;54.272;18.558;2023-07-16T06:28:45;100342.75;;;24.76;52.30
68807;BME280;55800;54.272;18.558;2023-07-16T06:31:17;100339.56;;;24.89;52.84
68807;BME280;55800;54.272;18.558;2023-07-16T06:33:46;100330.75;;;25.03;52.49
68807;BME280;55800;54.272;18.558;2023-07-16T06:36:17;100314.03;;;25.14;52.32
68807;BME280;55800;54.272;18.558;2023-07-16T06:38:48;100329.50;;;25.31;52.34
68807;BME280;55800;54.272;18.558;2023-07-16T06:41:19;100327.03;;;25.45;53.13
68807;BME280;55800;54.272;18.558;2023-07-16T06:43:57;100327.59;;;25.57;51.91
68807;BME280;55800;54.272;18.558;2023-07-16T06:46:26;100335.81;;;25.73;52.39
68807;BME280;55800;54.272;18.558;2023-07-16T06:48:56;100343.06;;;25.90;51.81
68807;BME280;55800;54.272;18.558;2023-07-16T06:51:29;100332.47;;;26.03;51.43
68807;BME280;55800;54.272;18.558;2023-07-16T06:54:00;100347.56;;;26.15;50.79
68807;BME280;55800;54.272;18.558;2023-07-16T06:56:29;100356.31;;;26.27;50.44
68807;BME280;55800;54.272;18.558;2023-07-16T06:58:58;100367.47;;;26.42;50.52
68807;BME280;55800;54.272;18.558;2023-07-16T07:01:27;100360.78;;;26.52;50.18
68807;BME280;55800;54.272;18.558;2023-07-16T07:03:56;100361.94;;;26.66;49.42
68807;BME280;55800;54.272;18.558;2023-07-16T07:06:25;100365.41;;;26.76;49.50
68807;BME280;55800;54.272;18.558;2023-07-16T07:08:55;100362.81;;;26.82;49.35
68807;BME280;55800;54.272;18.558;2023-07-16T07:11:25;100366.56;;;26.89;48.78
68807;BME280;55800;54.272;18.558;2023-07-16T07:13:54;100375.47;;;26.91;48.44
68807;BME280;55800;54.272;18.558;2023-07-16T07:16:25;100381.81;;;27.00;49.08
68807;BME280;55800;54.272;18.558;2023-07-16T07:18:54;100389.66;;;27.11;48.54
68807;BME280;55800;54.272;18.558;2023-07-16T07:21:23;100384.00;;;27.21;48.36
68807;BME280;55800;54.272;18.558;2023-07-16T07:23:52;100383.59;;;27.32;48.22
68807;BME280;55800;54.272;18.558;2023-07-16T07:26:22;100396.31;;;27.41;47.82
68807;BME280;55800;54.272;18.558;2023-07-16T07:28:51;100401.25;;;27.45;46.94
68807;BME280;55800;54.272;18.558;2023-07-16T07:31:20;100402.94;;;27.54;46.69
68807;BME280;55800;54.272;18.558;2023-07-16T07:33:49;100400.34;;;27.61;46.41
68807;BME280;55800;54.272;18.558;2023-07-16T07:36:19;100410.63;;;27.67;46.21
68807;BME280;55800;54.272;18.558;2023-07-16T07:38:48;100426.91;;;27.68;45.74
68807;BME280;55800;54.272;18.558;2023-07-16T07:41:18;100432.75;;;27.73;45.26
68807;BME280;55800;54.272;18.558;2023-07-16T07:43:48;100437.56;;;27.71;44.84
68807;BME280;55800;54.272;18.558;2023-07-16T07:46:18;100446.47;;;27.73;45.59
68807;BME280;55800;54.272;18.558;2023-07-16T07:48:47;100436.16;;;27.75;45.70
68807;BME280;55800;54.272;18.558;2023-07-16T07:51:16;100448.31;;;27.81;45.37
68807;BME280;55800;54.272;18.558;2023-07-16T07:53:48;100445.38;;;27.82;45.43
68807;BME280;55800;54.272;18.558;2023-07-16T07:56:18;100447.44;;;27.89;45.36
68807;BME280;55800;54.272;18.558;2023-07-16T07:58:49;100456.66;;;27.96;45.94
68807;BME280;55800;54.272;18.558;2023-07-16T08:01:18;100467.28;;;28.07;45.80
68807;BME280;55800;54.272;18.558;2023-07-16T08:03:47;100465.16;;;28.17;46.01
68807;BME280;55800;54.272;18.558;2023-07-16T08:06:17;100475.44;;;28.23;45.79
68807;BME280;55800;54.272;18.558;2023-07-16T08:08:48;100472.88;;;28.21;45.26
68807;BME280;55800;54.272;18.558;2023-07-16T08:11:17;100449.84;;;28.22;45.27
68807;BME280;55800;54.272;18.558;2023-07-16T08:13:46;100440.41;;;28.25;45.37
68807;BME280;55800;54.272;18.558;2023-07-16T08:16:18;100450.47;;;28.32;45.86
68807;BME280;55800;54.272;18.558;2023-07-16T08:18:47;100444.91;;;28.40;45.94
68807;BME280;55800;54.272;18.558;2023-07-16T08:21:17;100441.38;;;28.54;46.01
68807;BME280;55800;54.272;18.558;2023-07-16T08:23:48;100452.50;;;28.61;45.54
68807;BME280;55800;54.272;18.558;2023-07-16T08:26:18;100449.34;;;28.72;45.67
68807;BME280;55800;54.272;18.558;2023-07-16T08:28:48;100459.97;;;28.75;45.58
68807;BME280;55800;54.272;18.558;2023-07-16T08:31:18;100457.50;;;28.80;44.87
68807;BME280;55800;54.272;18.558;2023-07-16T08:33:49;100463.63;;;28.90;45.23
68807;BME280;55800;54.272;18.558;2023-07-16T08:36:18;100458.41;;;28.95;45.30
68807;BME280;55800;54.272;18.558;2023-07-16T08:38:47;100458.91;;;28.99;45.03
68807;BME280;55800;54.272;18.558;2023-07-16T08:41:16;100464.59;;;28.97;44.88
68807;BME280;55800;54.272;18.558;2023-07-16T08:43:46;100468.13;;;29.06;44.93
68807;BME280;55800;54.272;18.558;2023-07-16T08:46:15;100469.59;;;29.16;45.06
68807;BME280;55800;54.272;18.558;2023-07-16T08:48:46;100469.25;;;29.34;45.97
68807;BME280;55800;54.272;18.558;2023-07-16T08:51:16;100474.19;;;29.39;45.27
68807;BME280;55800;54.272;18.558;2023-07-16T08:53:46;100475.53;;;29.43;45.36
68807;BME280;55800;54.272;18.558;2023-07-16T08:56:16;100479.53;;;29.55;45.50
68807;BME280;55800;54.272;18.558;2023-07-16T08:58:46;100481.25;;;29.56;45.52
68807;BME280;55800;54.272;18.558;2023-07-16T09:01:16;100482.56;;;29.60;45.41
68807;BME280;55800;54.272;18.558;2023-07-16T09:03:53;100486.94;;;29.69;45.65
68807;BME280;55800;54.272;18.558;2023-07-16T09:06:22;100496.53;;;29.73;45.39
68807;BME280;55800;54.272;18.558;2023-07-16T09:08:51;100504.75;;;29.81;45.20
68807;BME280;55800;54.272;18.558;2023-07-16T09:11:20;100499.59;;;29.78;45.33
68807;BME280;55800;54.272;18.558;2023-07-16T09:13:50;100508.81;;;29.85;45.15
68807;BME280;55800;54.272;18.558;2023-07-16T09:16:19;100504.44;;;29.76;45.10
68807;BME280;55800;54.272;18.558;2023-07-16T09:18:49;100509.59;;;29.79;45.19
68807;BME280;55800;54.272;18.558;2023-07-16T09:21:19;100505.78;;;29.80;45.09
68807;BME280;55800;54.272;18.558;2023-07-16T09:23:49;100503.31;;;29.85;45.04
68807;BME280;55800;54.272;18.558;2023-07-16T09:26:18;100511.22;;;29.88;45.11
68807;BME280;55800;54.272;18.558;2023-07-16T09:28:48;100517.09;;;29.85;44.72
68807;BME280;55800;54.272;18.558;2023-07-16T09:31:17;100536.84;;;29.74;45.04
68807;BME280;55800;54.272;18.558;2023-07-16T09:33:46;100540.34;;;29.68;44.67
68807;BME280;55800;54.272;18.558;2023-07-16T09:36:23;100548.41;;;29.55;44.89
68807;BME280;55800;54.272;18.558;2023-07-16T09:38:53;100551.91;;;29.49;45.31
68807;BME280;55800;54.272;18.558;2023-07-16T09:41:22;100552.78;;;29.49;45.38
68807;BME280;55800;54.272;18.558;2023-07-16T09:43:52;100548.59;;;29.53;45.43
68807;BME280;55800;54.272;18.558;2023-07-16T09:46:21;100545.34;;;29.35;45.47
68807;BME280;55800;54.272;18.558;2023-07-16T09:48:51;100551.66;;;29.21;45.46
68807;BME280;55800;54.272;18.558;2023-07-16T09:51:20;100563.66;;;29.05;45.25
68807;BME280;55800;54.272;18.558;2023-07-16T09:53:51;100564.97;;;28.87;44.69
68807;BME280;55800;54.272;18.558;2023-07-16T09:56:20;100569.66;;;28.78;45.58
68807;BME280;55800;54.272;18.558;2023-07-16T09:58:50;100575.56;;;28.75;45.91
68807;BME280;55800;54.272;18.558;2023-07-16T10:01:21;100578.72;;;28.64;45.65
68807;BME280;55800;54.272;18.558;2023-07-16T10:03:51;100584.09;;;28.58;46.03
68807;BME280;55800;54.272;18.558;2023-07-16T10:06:20;100585.13;;;28.48;46.35
68807;BME280;55800;54.272;18.558;2023-07-16T10:08:49;100595.50;;;28.38;46.47
68807;BME280;55800;54.272;18.558;2023-07-16T10:11:20;100595.97;;;28.42;46.24
68807;BME280;55800;54.272;18.558;2023-07-16T10:13:49;100606.50;;;28.38;46.76
68807;BME280;55800;54.272;18.558;2023-07-16T10:16:19;100602.53;;;28.41;46.76
68807;BME280;55800;54.272;18.558;2023-07-16T10:18:50;100608.22;;;28.39;46.73
68807;BME280;55800;54.272;18.558;2023-07-16T10:21:22;100620.78;;;28.34;46.82
68807;BME280;55800;54.272;18.558;2023-07-16T10:23:56;100627.34;;;28.33;47.31
68807;BME280;55800;54.272;18.558;2023-07-16T10:26:27;100637.28;;;28.34;47.55
68807;BME280;55800;54.272;18.558;2023-07-16T10:28:57;100636.44;;;28.25;47.33
68807;BME280;55800;54.272;18.558;2023-07-16T10:31:26;100650.41;;;28.16;47.48
68807;BME280;55800;54.272;18.558;2023-07-16T10:33:57;100658.31;;;28.11;47.65
68807;BME280;55800;54.272;18.558;2023-07-16T10:36:26;100653.31;;;28.14;47.86
68807;BME280;55800;54.272;18.558;2023-07-16T10:39:01;100647.63;;;28.24;47.79
68807;BME280;55800;54.272;18.558;2023-07-16T10:41:31;100652.50;;;28.14;48.12
68807;BME280;55800;54.272;18.558;2023-07-16T10:44:01;100660.72;;;28.14;48.07
68807;BME280;55800;54.272;18.558;2023-07-16T10:46:30;100657.47;;;28.10;48.30
68807;BME280;55800;54.272;18.558;2023-07-16T10:49:00;100649.41;;;28.09;48.43
68807;BME280;55800;54.272;18.558;2023-07-16T10:51:29;100655.75;;;28.09;48.18
68807;BME280;55800;54.272;18.558;2023-07-16T10:53:58;100644.78;;;28.01;48.11
68807;BME280;55800;54.272;18.558;2023-07-16T10:56:27;100657.81;;;28.07;48.21
68807;BME280;55800;54.272;18.558;2023-07-16T10:58:58;100654.91;;;28.09;48.36
68807;BME280;55800;54.272;18.558;2023-07-16T11:01:28;100670.38;;;28.10;48.22
68807;BME280;55800;54.272;18.558;2023-07-16T11:03:59;100677.25;;;28.06;48.19
68807;BME280;55800;54.272;18.558;2023-07-16T11:06:28;100684.28;;;28.08;48.15
68807;BME280;55800;54.272;18.558;2023-07-16T11:09:05;100700.75;;;28.08;48.34
68807;BME280;55800;54.272;18.558;2023-07-16T11:11:34;100692.00;;;28.13;48.64
68807;BME280;55800;54.272;18.558;2023-07-16T11:14:05;100687.19;;;28.15;48.79
68807;BME280;55800;54.272;18.558;2023-07-16T11:16:35;100685.13;;;28.09;49.04
68807;BME280;55800;54.272;18.558;2023-07-16T11:19:05;100682.34;;;28.17;48.77
68807;BME280;55800;54.272;18.558;2023-07-16T11:21:35;100684.28;;;28.16;49.35
68807;BME280;55800;54.272;18.558;2023-07-16T11:24:07;100681.84;;;28.21;49.15
68807;BME280;55800;54.272;18.558;2023-07-16T11:26:37;100688.16;;;28.30;49.40
68807;BME280;55800;54.272;18.558;2023-07-16T11:29:14;100690.63;;;28.25;49.19
68807;BME280;55800;54.272;18.558;2023-07-16T11:31:43;100695.06;;;28.26;49.39
68807;BME280;55800;54.272;18.558;2023-07-16T11:34:13;100699.00;;;28.31;49.30
68807;BME280;55800;54.272;18.558;2023-07-16T11:36:42;100699.31;;;28.44;49.35
68807;BME280;55800;54.272;18.558;2023-07-16T11:39:11;100702.19;;;28.51;49.41
68807;BME280;55800;54.272;18.558;2023-07-16T11:41:40;100701.00;;;28.62;48.90
68807;BME280;55800;54.272;18.558;2023-07-16T11:44:10;100699.63;;;28.58;48.83
68807;BME280;55800;54.272;18.558;2023-07-16T11:46:42;100686.03;;;28.64;48.96
68807;BME280;55800;54.272;18.558;2023-07-16T11:49:16;100680.47;;;28.72;48.64
68807;BME280;55800;54.272;18.558;2023-07-16T11:51:45;100689.78;;;28.71;48.62
68807;BME280;55800;54.272;18.558;2023-07-16T11:54:16;100686.59;;;28.82;48.61
68807;BME280;55800;54.272;18.558;2023-07-16T11:56:50;100684.13;;;28.95;48.94
68807;BME280;55800;54.272;18.558;2023-07-16T11:59:19;100687.03;;;29.02;48.92
68807;BME280;55800;54.272;18.558;2023-07-16T12:01:50;100687.84;;;29.10;48.76
68807;BME280;55800;54.272;18.558;2023-07-16T12:04:20;100677.13;;;29.23;48.76
68807;BME280;55800;54.272;18.558;2023-07-16T12:06:49;100677.38;;;29.37;48.50
68807;BME280;55800;54.272;18.558;2023-07-16T12:09:20;100674.06;;;29.41;48.66
68807;BME280;55800;54.272;18.558;2023-07-16T12:11:50;100674.00;;;29.49;48.67
68807;BME280;55800;54.272;18.558;2023-07-16T12:14:20;100682.94;;;29.51;47.91
68807;BME280;55800;54.272;18.558;2023-07-16T12:16:52;100683.41;;;29.55;48.55
68807;BME280;55800;54.272;18.558;2023-07-16T12:19:22;100686.28;;;29.61;48.08
68807;BME280;55800;54.272;18.558;2023-07-16T12:21:51;100691.25;;;29.66;47.94
68807;BME280;55800;54.272;18.558;2023-07-16T12:24:21;100701.25;;;29.67;47.40
68807;BME280;55800;54.272;18.558;2023-07-16T12:26:50;100699.19;;;29.61;46.79
68807;BME280;55800;54.272;18.558;2023-07-16T12:29:19;100693.41;;;29.56;47.10
68807;BME280;55800;54.272;18.558;2023-07-16T12:31:48;100700.63;;;29.57;47.35
68807;BME280;55800;54.272;18.558;2023-07-16T12:34:19;100696.44;;;29.61;47.18
68807;BME280;55800;54.272;18.558;2023-07-16T12:36:48;100697.13;;;29.63;47.34
68807;BME280;55800;54.272;18.558;2023-07-16T12:39:17;100702.28;;;29.66;47.09
68807;BME280;55800;54.272;18.558;2023-07-16T12:41:46;100696.41;;;29.69;46.83
68807;BME280;55800;54.272;18.558;2023-07-16T12:44:15;100701.88;;;29.54;46.51
68807;BME280;55800;54.272;18.558;2023-07-16T12:46:44;100697.94;;;29.49;46.48
68807;BME280;55800;54.272;18.558;2023-07-16T12:49:13;100705.44;;;29.55;46.41
68807;BME280;55800;54.272;18.558;2023-07-16T12:51:44;100713.72;;;29.55;46.67
68807;BME280;55800;54.272;18.558;2023-07-16T12:54:13;100710.63;;;29.58;46.40
68807;BME280;55800;54.272;18.558;2023-07-16T12:56:42;100713.78;;;29.69;46.28
68807;BME280;55800;54.272;18.558;2023-07-16T12:59:13;100718.41;;;29.77;46.62
68807;BME280;55800;54.272;18.558;2023-07-16T13:01:41;100706.56;;;29.91;46.22
68807;BME280;55800;54.272;18.558;2023-07-16T13:04:11;100714.47;;;29.94;45.93
68807;BME280;55800;54.272;18.558;2023-07-16T13:06:40;100723.97;;;29.91;45.47
68807;BME280;55800;54.272;18.558;2023-07-16T13:09:11;100719.59;;;29.97;45.64
68807;BME280;55800;54.272;18.558;2023-07-16T13:11:40;100719.91;;;30.02;45.58
68807;BME280;55800;54.272;18.558;2023-07-16T13:14:09;100725.31;;;30.10;45.75
68807;BME280;55800;54.272;18.558;2023-07-16T13:16:38;100720.22;;;30.07;45.36
68807;BME280;55800;54.272;18.558;2023-07-16T13:19:08;100712.50;;;30.17;45.25
68807;BME280;55800;54.272;18.558;2023-07-16T13:21:37;100710.41;;;30.19;45.32
68807;BME280;55800;54.272;18.558;2023-07-16T13:24:06;100703.59;;;30.30;45.53
68807;BME280;55800;54.272;18.558;2023-07-16T13:26:36;100703.72;;;30.36;45.50
68807;BME280;55800;54.272;18.558;2023-07-16T13:29:05;100703.97;;;30.41;45.77
68807;BME280;55800;54.272;18.558;2023-07-16T13:31:34;100708.78;;;30.47;45.35
68807;BME280;55800;54.272;18.558;2023-07-16T13:34:03;100703.34;;;30.54;45.11
68807;BME280;55800;54.272;18.558;2023-07-16T13:36:32;100708.09;;;30.60;45.00
68807;BME280;55800;54.272;18.558;2023-07-16T13:39:02;100706.91;;;30.69;45.64
68807;BME280;55800;54.272;18.558;2023-07-16T13:41:32;100717.50;;;30.65;45.00
68807;BME280;55800;54.272;18.558;2023-07-16T13:44:04;100709.97;;;30.74;45.03
68807;BME280;55800;54.272;18.558;2023-07-16T13:46:33;100713.41;;;30.76;44.51
68807;BME280;55800;54.272;18.558;2023-07-16T13:49:02;100713.72;;;30.66;44.36
68807;BME280;55800;54.272;18.558;2023-07-16T13:51:31;100718.63;;;30.56;44.15
68807;BME280;55800;54.272;18.558;2023-07-16T13:54:00;100720.06;;;30.52;44.18
68807;BME280;55800;54.272;18.558;2023-07-16T13:56:29;100725.59;;;30.52;43.95
68807;BME280;55800;54.272;18.558;2023-07-16T13:58:58;100724.91;;;30.36;44.55
68807;BME280;55800;54.272;18.558;2023-07-16T14:01:29;100725.75;;;30.22;44.93
68807;BME280;55800;54.272;18.558;2023-07-16T14:03:59;100727.41;;;30.08;44.92
68807;BME280;55800;54.272;18.558;2023-07-16T14:06:29;100729.91;;;30.03;45.48
68807;BME280;55800;54.272;18.558;2023-07-16T14:08:58;100729.13;;;29.94;45.14
68807;BME280;55800;54.272;18.558;2023-07-16T14:11:27;100727.38;;;29.93;45.46
68807;BME280;55800;54.272;18.558;2023-07-16T14:13:56;100736.22;;;29.89;45.53
68807;BME280;55800;54.272;18.558;2023-07-16T14:16:25;100740.81;;;29.74;46.22